createdAt,value
2018-03-26T00:01:04.910Z,45.07
2018-03-26T00:02:10.807Z,45.90
2018-03-26T00:03:16.652Z,46.73
2018-03-26T00:04:21.695Z,44.00
2018-03-26T00:05:26.668Z,45.37
2018-03-26T00:06:30.959Z,46.73
2018-03-26T00:07:36.441Z,46.83
2018-03-26T00:08:42.290Z,46.00
2018-03-26T00:09:49.044Z,44.47
2018-03-26T00:10:53.368Z,48.07
2018-03-26T00:11:57.615Z,45.60
2018-03-26T00:13:02.591Z,48.80
2018-03-26T00:14:07.609Z,45.13
2018-03-26T00:15:13.342Z,47.63
2018-03-26T00:16:19.021Z,47.33
2018-03-26T00:17:23.347Z,47.67
2018-03-26T00:18:27.941Z,48.23
2018-03-26T00:19:32.139Z,45.07
2018-03-26T00:20:40.059Z,45.60
2018-03-26T00:21:45.144Z,46.90
2018-03-26T00:22:51.091Z,46.73
2018-03-26T00:23:56.120Z,44.90
2018-03-26T00:25:01.087Z,46.97
2018-03-26T00:26:08.001Z,48.13
2018-03-26T00:27:13.216Z,46.10
2018-03-26T00:28:18.809Z,49.60
2018-03-26T00:29:24.837Z,49.33
2018-03-26T00:30:29.030Z,50.67
2018-03-26T00:31:33.304Z,49.27
2018-03-26T00:32:38.892Z,48.50
2018-03-26T00:33:44.560Z,49.67
2018-03-26T00:34:50.348Z,48.13
2018-03-26T00:35:55.290Z,53.90
2018-03-26T00:36:59.490Z,49.97
2018-03-26T00:38:03.833Z,46.10
2018-03-26T00:39:10.063Z,48.90
2018-03-26T00:40:16.464Z,48.97
2018-03-26T00:41:21.817Z,48.53
2018-03-26T00:42:26.779Z,46.70
2018-03-26T00:43:30.989Z,49.20
2018-03-26T00:44:35.930Z,48.67
2018-03-26T00:45:42.278Z,51.77
2018-03-26T00:46:47.941Z,45.73
2018-03-26T00:47:53.092Z,52.63
2018-03-26T00:48:57.300Z,48.80
2018-03-26T00:50:01.499Z,50.10
2018-03-26T00:51:06.806Z,48.83
2018-03-26T00:52:12.263Z,49.67
2018-03-26T00:53:35.319Z,48.53
2018-03-26T00:54:43.663Z,46.33
2018-03-26T00:55:49.739Z,48.70
2018-03-26T00:56:54.763Z,47.03
2018-03-26T00:57:59.750Z,48.63
2018-03-26T00:59:04.680Z,46.77
2018-03-26T01:00:10.447Z,48.47
2018-03-26T01:01:15.322Z,48.73
2018-03-26T01:02:19.631Z,46.43
2018-03-26T01:03:23.834Z,48.83
2018-03-26T01:04:28.803Z,53.50
2018-03-26T01:05:33.038Z,51.87
2018-03-26T01:06:38.135Z,48.23
2018-03-26T01:07:42.746Z,52.33
2018-03-26T01:08:48.069Z,47.33
2018-03-26T01:09:52.258Z,50.43
2018-03-26T01:10:56.446Z,52.20
2018-03-26T01:12:00.672Z,52.50
2018-03-26T01:13:06.918Z,49.50
2018-03-26T01:14:12.263Z,51.20
2018-03-26T01:15:17.416Z,49.80
2018-03-26T01:16:22.410Z,51.30
2018-03-26T01:17:26.626Z,51.60
2018-03-26T01:18:30.837Z,50.63
2018-03-26T01:19:36.331Z,47.20
2018-03-26T01:20:41.218Z,50.80
2018-03-26T01:21:46.689Z,53.67
2018-03-26T01:22:51.561Z,50.70
2018-03-26T01:23:55.776Z,52.80
2018-03-26T01:24:59.974Z,49.63
2018-03-26T01:26:04.446Z,52.30
2018-03-26T01:27:11.050Z,47.00
2018-03-26T01:28:16.769Z,49.77
2018-03-26T01:29:21.220Z,50.87
2018-03-26T01:30:25.426Z,49.57
2018-03-26T01:31:29.640Z,49.37
2018-03-26T01:32:35.170Z,49.50
2018-03-26T01:33:40.351Z,51.30
2018-03-26T01:34:47.037Z,51.97
2018-03-26T01:35:51.645Z,49.57
2018-03-26T01:36:55.968Z,49.97
2018-03-26T01:38:00.960Z,46.90
2018-03-26T01:39:06.746Z,51.87
2018-03-26T01:40:13.739Z,48.73
2018-03-26T01:41:20.188Z,51.17
2018-03-26T01:42:25.171Z,46.27
2018-03-26T01:43:29.362Z,47.43
2018-03-26T01:44:33.937Z,46.63
2018-03-26T01:45:39.810Z,49.27
2018-03-26T01:46:45.402Z,49.03
2018-03-26T01:47:50.345Z,50.33
2018-03-26T01:48:54.552Z,51.13
2018-03-26T01:49:58.764Z,49.70
2018-03-26T01:51:03.008Z,50.40
2018-03-26T01:52:09.474Z,48.10
2018-03-26T01:53:15.537Z,51.72
2018-03-26T01:54:21.166Z,46.87
2018-03-26T01:55:26.140Z,51.57
2018-03-26T01:56:30.370Z,53.30
2018-03-26T01:57:35.834Z,52.03
2018-03-26T01:58:43.983Z,48.53
2018-03-26T01:59:51.516Z,48.43
2018-03-26T02:00:56.637Z,49.27
2018-03-26T02:02:00.850Z,51.63
2018-03-26T02:03:07.947Z,51.63
2018-03-26T02:04:14.383Z,50.73
2018-03-26T02:05:20.346Z,49.13
2018-03-26T02:06:25.850Z,50.10
2018-03-26T02:07:30.047Z,49.50
2018-03-26T02:08:35.011Z,44.73
2018-03-26T02:09:43.292Z,43.23
2018-03-26T02:10:50.878Z,46.20
2018-03-26T02:11:55.145Z,46.47
2018-03-26T02:12:59.343Z,44.10
2018-03-26T02:14:06.604Z,44.07
2018-03-26T02:15:12.869Z,44.87
2018-03-26T02:16:17.949Z,43.53
2018-03-26T02:17:22.725Z,43.77
2018-03-26T02:18:26.995Z,44.07
2018-03-26T02:19:31.218Z,41.83
2018-03-26T02:20:37.005Z,41.40
2018-03-26T02:21:43.469Z,44.03
2018-03-26T02:22:48.410Z,44.10
2018-03-26T02:23:53.113Z,44.23
2018-03-26T02:24:57.323Z,44.60
2018-03-26T02:26:01.588Z,41.72
2018-03-26T02:27:10.212Z,41.83
2018-03-26T02:28:15.858Z,40.60
2018-03-26T02:29:21.492Z,43.67
2018-03-26T02:30:25.697Z,39.23
2018-03-26T02:31:29.924Z,38.50
2018-03-26T02:32:34.931Z,40.70
2018-03-26T02:33:42.252Z,39.70
2018-03-26T02:34:47.995Z,38.67
2018-03-26T02:35:53.564Z,36.30
2018-03-26T02:36:57.793Z,38.43
2018-03-26T02:38:02.058Z,39.07
2018-03-26T02:39:08.778Z,38.83
2018-03-26T02:40:15.111Z,39.42
2018-03-26T02:41:20.261Z,37.47
2018-03-26T02:42:24.543Z,38.20
2018-03-26T02:43:28.785Z,40.10
2018-03-26T02:44:33.287Z,38.53
2018-03-26T02:45:38.847Z,38.40
2018-03-26T02:46:43.707Z,35.93
2018-03-26T02:47:50.075Z,38.10
2018-03-26T02:48:54.285Z,38.50
2018-03-26T02:49:58.552Z,37.83
2018-03-26T02:51:02.760Z,36.27
2018-03-26T02:52:08.839Z,37.03
2018-03-26T02:53:15.168Z,37.67
2018-03-26T02:54:19.895Z,37.07
2018-03-26T02:55:24.887Z,39.70
2018-03-26T02:56:29.108Z,40.88
2018-03-26T02:57:33.409Z,39.10
2018-03-26T02:58:38.984Z,41.20
2018-03-26T02:59:45.949Z,40.20
2018-03-26T03:00:52.319Z,37.67
2018-03-26T03:01:56.551Z,39.90
2018-03-26T03:03:01.545Z,39.53
2018-03-26T03:04:06.656Z,37.70
2018-03-26T03:05:12.961Z,35.27
2018-03-26T03:06:19.278Z,37.72
2018-03-26T03:07:23.605Z,35.30
2018-03-26T03:08:27.823Z,37.42
2018-03-26T03:09:32.013Z,37.57
2018-03-26T03:10:38.680Z,35.27
2018-03-26T03:11:45.362Z,33.60
2018-03-26T03:12:50.705Z,35.17
2018-03-26T03:13:54.940Z,35.47
2018-03-26T03:14:59.139Z,34.50
2018-03-26T03:16:03.351Z,35.30
2018-03-26T03:17:10.043Z,36.60
2018-03-26T03:18:15.282Z,37.87
2018-03-26T03:19:20.612Z,39.35
2018-03-26T03:20:24.828Z,39.95
2018-03-26T03:21:29.045Z,41.97
2018-03-26T03:22:33.347Z,38.53
2018-03-26T03:23:40.413Z,37.67
2018-03-26T03:24:45.912Z,38.75
2018-03-26T03:25:50.440Z,36.00
2018-03-26T03:26:54.651Z,33.95
2018-03-26T03:27:58.916Z,30.20
2018-03-26T03:29:03.152Z,28.57
2018-03-26T03:30:10.833Z,28.23
2018-03-26T03:31:17.348Z,27.92
2018-03-26T03:32:22.524Z,29.37
2018-03-26T03:33:27.904Z,30.92
2018-03-26T03:34:32.108Z,30.83
2018-03-26T03:35:38.901Z,30.50
2018-03-26T03:36:43.746Z,31.05
2018-03-26T03:37:49.582Z,33.00
2018-03-26T03:38:54.624Z,33.80
2018-03-26T03:39:58.824Z,33.47
2018-03-26T03:41:03.179Z,32.13
2018-03-26T03:42:09.328Z,32.50
2018-03-26T03:43:15.622Z,33.95
2018-03-26T03:44:20.988Z,33.55
2018-03-26T03:45:25.196Z,31.90
2018-03-26T03:46:29.401Z,35.30
2018-03-26T03:47:34.289Z,33.47
2018-03-26T03:48:41.949Z,34.63
2018-03-26T03:49:48.327Z,35.03
2018-03-26T03:50:52.655Z,34.97
2018-03-26T03:51:57.605Z,36.63
2018-03-26T03:53:01.826Z,33.17
2018-03-26T03:54:06.995Z,35.72
2018-03-26T03:55:12.560Z,36.70
2018-03-26T03:56:17.245Z,36.17
2018-03-26T03:57:22.071Z,35.22
2018-03-26T03:58:26.323Z,35.15
2018-03-26T03:59:31.334Z,38.63
2018-03-26T04:00:37.652Z,34.33
2018-03-26T04:01:42.886Z,33.83
2018-03-26T04:02:47.664Z,34.47
2018-03-26T04:03:52.750Z,32.17
2018-03-26T04:04:57.017Z,32.58
2018-03-26T04:06:01.236Z,32.72
2018-03-26T04:07:07.666Z,33.00
2018-03-26T04:08:14.358Z,30.60
2018-03-26T04:09:20.373Z,31.17
2018-03-26T04:10:24.663Z,30.37
2018-03-26T04:11:28.862Z,29.87
2018-03-26T04:12:33.077Z,30.73
2018-03-26T04:13:40.453Z,31.05
2018-03-26T04:14:45.838Z,28.53
2018-03-26T04:15:50.659Z,28.00
2018-03-26T04:16:54.880Z,28.27
2018-03-26T04:17:59.065Z,29.63
2018-03-26T04:19:03.298Z,28.40
2018-03-26T04:20:08.297Z,27.30
2018-03-26T04:21:13.557Z,29.17
2018-03-26T04:22:18.960Z,24.98
2018-03-26T04:23:23.172Z,26.30
2018-03-26T04:24:27.391Z,25.50
2018-03-26T04:25:31.592Z,26.87
2018-03-26T04:26:36.169Z,24.00
2018-03-26T04:27:41.187Z,23.73
2018-03-26T04:28:47.753Z,23.67
2018-03-26T04:30:00.373Z,23.37
2018-03-26T04:31:06.118Z,25.15
2018-03-26T04:32:12.115Z,25.17
2018-03-26T04:33:17.052Z,23.70
2018-03-26T04:34:21.682Z,25.20
2018-03-26T04:35:25.867Z,23.53
2018-03-26T04:36:30.084Z,26.15
2018-03-26T04:37:34.827Z,23.52
2018-03-26T04:38:41.879Z,22.53
2018-03-26T04:39:46.731Z,22.65
2018-03-26T04:40:52.136Z,26.00
2018-03-26T04:41:56.357Z,25.20
2018-03-26T04:43:00.987Z,25.03
2018-03-26T04:44:06.435Z,25.50
2018-03-26T04:45:13.785Z,26.43
2018-03-26T04:46:18.899Z,25.27
2018-03-26T04:47:23.175Z,24.97
2018-03-26T04:48:27.449Z,25.10
2018-03-26T04:49:31.670Z,26.92
2018-03-26T04:50:39.081Z,27.15
2018-03-26T04:51:43.698Z,26.03
2018-03-26T04:52:51.118Z,24.05
2018-03-26T04:53:56.133Z,26.53
2018-03-26T04:55:00.327Z,24.13
2018-03-26T04:56:06.249Z,24.33
2018-03-26T04:57:12.532Z,23.63
2018-03-26T04:58:17.864Z,24.80
2018-03-26T04:59:22.389Z,27.30
2018-03-26T05:00:26.952Z,25.50
2018-03-26T05:01:31.158Z,24.50
2018-03-26T05:02:36.449Z,24.43
2018-03-26T05:03:42.287Z,26.20
2018-03-26T05:04:48.952Z,24.20
2018-03-26T05:05:53.696Z,27.40
2018-03-26T05:06:57.948Z,24.67
2018-03-26T05:08:02.147Z,26.17
2018-03-26T05:09:09.477Z,26.00
2018-03-26T05:10:15.151Z,25.60
2018-03-26T05:11:20.568Z,26.27
2018-03-26T05:12:24.827Z,25.45
2018-03-26T05:13:29.357Z,26.80
2018-03-26T05:14:36.896Z,24.37
2018-03-26T05:15:43.498Z,20.00
2018-03-26T05:16:48.682Z,22.43
2018-03-26T05:17:53.733Z,21.27
2018-03-26T05:18:58.086Z,18.87
2018-03-26T05:20:03.965Z,17.00
2018-03-26T05:21:10.132Z,14.83
2018-03-26T05:22:15.771Z,15.30
2018-03-26T05:23:20.500Z,14.97
2018-03-26T05:24:24.763Z,14.23
2018-03-26T05:25:28.959Z,14.10
2018-03-26T05:26:33.204Z,13.53
2018-03-26T05:27:40.107Z,13.73
2018-03-26T05:28:45.998Z,13.40
2018-03-26T05:29:50.807Z,15.93
2018-03-26T05:30:55.000Z,15.20
2018-03-26T05:31:59.213Z,14.57
2018-03-26T05:33:03.431Z,14.43
2018-03-26T05:34:10.466Z,14.20
2018-03-26T05:35:17.442Z,15.77
2018-03-26T05:36:22.107Z,14.97
2018-03-26T05:37:26.313Z,12.87
2018-03-26T05:38:30.502Z,13.93
2018-03-26T05:39:35.668Z,13.23
2018-03-26T05:40:42.080Z,13.90
2018-03-26T05:41:47.659Z,13.93
2018-03-26T05:42:52.535Z,14.53
2018-03-26T05:43:56.752Z,14.20
2018-03-26T05:45:01.733Z,12.80
2018-03-26T05:46:06.968Z,13.60
2018-03-26T05:47:14.235Z,14.17
2018-03-26T05:48:20.567Z,14.30
2018-03-26T05:49:25.539Z,14.03
2018-03-26T05:50:29.749Z,16.67
2018-03-26T05:51:35.110Z,14.20
2018-03-26T05:52:42.204Z,14.87
2018-03-26T05:53:47.272Z,13.73
2018-03-26T05:54:53.112Z,14.70
2018-03-26T05:55:58.076Z,13.67
2018-03-26T05:57:02.276Z,13.73
2018-03-26T05:58:08.581Z,13.97
2018-03-26T05:59:15.729Z,12.97
2018-03-26T06:00:21.705Z,13.97
2018-03-26T06:01:26.712Z,13.27
2018-03-26T06:02:30.925Z,12.33
2018-03-26T06:03:36.776Z,13.47
2018-03-26T06:04:42.876Z,13.97
2018-03-26T06:05:47.883Z,13.10
2018-03-26T06:06:52.323Z,12.87
2018-03-26T06:07:57.360Z,12.50
2018-03-26T06:09:02.349Z,14.10
2018-03-26T06:10:06.608Z,13.53
2018-03-26T06:11:12.096Z,13.77
2018-03-26T06:12:16.275Z,12.70
2018-03-26T06:13:20.580Z,13.70
2018-03-26T06:14:24.837Z,13.37
2018-03-26T06:18:24.312Z,14.40
2018-03-26T06:19:29.361Z,14.10
2018-03-26T06:20:33.594Z,13.80
2018-03-26T06:21:37.859Z,14.20
2018-03-26T06:22:42.686Z,14.63
2018-03-26T06:23:48.142Z,16.53
2018-03-26T06:24:52.369Z,12.90
2018-03-26T06:25:57.525Z,15.30
2018-03-26T06:27:01.752Z,14.43
2018-03-26T06:28:07.156Z,14.90
2018-03-26T06:29:11.614Z,15.47
2018-03-26T06:30:19.458Z,16.63
2018-03-26T06:31:24.034Z,15.30
2018-03-26T06:32:28.261Z,15.67
2018-03-26T06:33:33.335Z,14.98
2018-03-26T06:34:41.024Z,15.87
2018-03-26T06:35:47.684Z,15.63
2018-03-26T06:38:36.438Z,15.33
2018-03-26T06:39:44.645Z,14.77
2018-03-26T06:40:49.446Z,16.70
2018-03-26T06:41:53.796Z,13.80
2018-03-26T06:42:58.415Z,13.17
2018-03-26T06:44:02.640Z,14.47
2018-03-26T06:45:08.324Z,12.87
2018-03-26T06:46:13.909Z,11.53
2018-03-26T06:47:20.954Z,11.70
2018-03-26T06:48:25.195Z,12.07
2018-03-26T06:49:29.398Z,12.30
2018-03-26T06:50:34.013Z,11.88
2018-03-26T06:51:42.065Z,10.80
2018-03-26T06:52:49.118Z,12.73
2018-03-26T06:53:53.892Z,12.70
2018-03-26T06:54:58.894Z,13.68
2018-03-26T06:56:03.101Z,12.17
2018-03-26T06:57:08.508Z,10.97
2018-03-26T06:58:15.479Z,10.17
2018-03-26T06:59:22.032Z,9.20
2018-03-26T07:00:26.248Z,10.30
2018-03-26T07:01:30.461Z,10.43
2018-03-26T07:02:37.848Z,9.60
2018-03-26T07:03:44.181Z,9.07
2018-03-26T07:04:49.313Z,11.50
2018-03-26T07:05:54.286Z,8.73
2018-03-26T07:06:58.494Z,10.00
2018-03-26T07:08:03.139Z,9.63
2018-03-26T07:09:09.907Z,10.35
2018-03-26T07:10:17.059Z,9.03
2018-03-26T07:11:22.807Z,9.50
2018-03-26T07:12:27.046Z,9.37
2018-03-26T07:13:31.306Z,9.27
2018-03-26T07:14:38.368Z,8.97
2018-03-26T07:15:44.975Z,8.73
2018-03-26T07:16:50.867Z,9.83
2018-03-26T07:17:55.063Z,9.03
2018-03-26T07:18:59.303Z,10.07
2018-03-26T07:20:03.733Z,9.20
2018-03-26T07:21:11.194Z,9.43
2018-03-26T07:22:17.564Z,9.60
2018-03-26T07:23:22.332Z,9.33
2018-03-26T07:24:26.528Z,9.80
2018-03-26T07:25:31.500Z,9.82
2018-03-26T07:26:36.794Z,8.80
2018-03-26T07:27:41.752Z,9.97
2018-03-26T07:28:46.890Z,8.40
2018-03-26T07:29:51.135Z,9.77
2018-03-26T07:30:55.321Z,9.20
2018-03-26T07:31:59.535Z,9.17
2018-03-26T07:33:04.735Z,10.00
2018-03-26T07:34:10.268Z,8.93
2018-03-26T07:35:15.723Z,9.03
2018-03-26T07:36:20.097Z,7.10
2018-03-26T07:37:24.281Z,8.40
2018-03-26T07:38:28.536Z,9.90
2018-03-26T07:39:33.587Z,8.83
2018-03-26T07:40:38.052Z,9.57
2018-03-26T07:41:42.318Z,8.83
2018-03-26T07:42:46.678Z,9.60
2018-03-26T07:43:51.045Z,9.40
2018-03-26T07:44:55.243Z,8.40
2018-03-26T07:46:00.199Z,9.27
2018-03-26T07:47:04.635Z,9.17
2018-03-26T07:48:09.626Z,8.37
2018-03-26T07:49:14.241Z,9.70
2018-03-26T07:50:18.471Z,10.17
2018-03-26T07:51:22.664Z,9.70
2018-03-26T07:52:26.862Z,10.03
2018-03-26T07:53:31.825Z,9.50
2018-03-26T07:54:37.763Z,10.00
2018-03-26T07:55:42.658Z,8.80
2018-03-26T07:56:47.426Z,8.97
2018-03-26T07:57:52.606Z,8.00
2018-03-26T07:58:57.587Z,7.97
2018-03-26T08:00:02.190Z,8.53
2018-03-26T08:01:08.679Z,8.30
2018-03-26T08:02:15.687Z,7.97
2018-03-26T08:03:20.535Z,8.40
2018-03-26T08:04:25.486Z,9.53
2018-03-26T08:05:30.137Z,11.63
2018-03-26T08:06:35.301Z,9.70
2018-03-26T08:07:43.532Z,8.90
2018-03-26T08:08:49.803Z,6.70
2018-03-26T08:09:54.322Z,7.70
2018-03-26T08:10:58.581Z,6.77
2018-03-26T08:12:02.778Z,7.13
2018-03-26T08:13:08.659Z,7.20
2018-03-26T08:14:14.717Z,7.17
2018-03-26T08:15:20.622Z,6.60
2018-03-26T08:16:24.874Z,6.77
2018-03-26T08:17:29.072Z,6.60
2018-03-26T08:18:33.343Z,5.90
2018-03-26T08:19:40.483Z,7.13
2018-03-26T08:20:46.148Z,8.00
2018-03-26T08:21:51.741Z,6.40
2018-03-26T08:22:55.948Z,6.33
2018-03-26T08:24:00.173Z,7.27
2018-03-26T08:25:05.186Z,7.33
2018-03-26T08:26:12.323Z,7.33
2018-03-26T08:27:18.697Z,7.73
2018-03-26T08:28:24.317Z,5.97
2018-03-26T08:29:29.295Z,8.63
2018-03-26T08:30:33.600Z,7.60
2018-03-26T08:31:40.627Z,7.20
2018-03-26T08:32:46.651Z,6.93
2018-03-26T08:33:51.636Z,7.20
2018-03-26T08:34:55.842Z,6.93
2018-03-26T08:36:00.055Z,6.90
2018-03-26T08:37:05.082Z,6.60
2018-03-26T08:38:12.275Z,7.83
2018-03-26T08:39:17.134Z,7.07
2018-03-26T08:40:22.092Z,7.87
2018-03-26T08:41:26.273Z,8.03
2018-03-26T08:42:30.538Z,7.10
2018-03-26T08:43:35.890Z,6.83
2018-03-26T08:44:42.809Z,8.27
2018-03-26T08:45:51.604Z,7.63
2018-03-26T08:46:55.810Z,7.33
2018-03-26T08:48:00.001Z,6.70
2018-03-26T08:49:05.837Z,9.00
2018-03-26T08:50:12.060Z,7.93
2018-03-26T08:51:18.637Z,9.27
2018-03-26T08:52:24.684Z,8.80
2018-03-26T08:53:29.365Z,9.13
2018-03-26T08:54:33.128Z,8.13
2018-03-26T08:55:39.705Z,9.70
2018-03-26T08:56:44.687Z,9.70
2018-03-26T08:57:50.416Z,10.00
2018-03-26T08:58:54.667Z,10.50
2018-03-26T08:59:58.869Z,10.40
2018-03-26T09:01:03.066Z,9.17
2018-03-26T09:02:08.811Z,10.30
2018-03-26T09:03:14.413Z,10.47
2018-03-26T09:04:19.276Z,10.87
2018-03-26T09:05:23.755Z,8.80
2018-03-26T09:06:27.965Z,11.60
2018-03-26T09:07:32.165Z,10.83
2018-03-26T09:08:38.603Z,12.50
2018-03-26T09:09:46.027Z,11.00
2018-03-26T09:10:52.306Z,10.33
2018-03-26T09:11:56.540Z,12.20
2018-03-26T09:13:00.757Z,10.80
2018-03-26T09:14:05.916Z,11.83
2018-03-26T09:15:12.547Z,11.30
2018-03-26T09:16:18.011Z,11.43
2018-03-26T09:17:22.389Z,10.40
2018-03-26T09:18:26.560Z,11.50
2018-03-26T09:19:31.541Z,10.00
2018-03-26T09:20:36.163Z,8.90
2018-03-26T09:21:41.244Z,9.67
2018-03-26T09:22:47.403Z,9.20
2018-03-26T09:23:51.622Z,8.07
2018-03-26T09:24:55.819Z,7.77
2018-03-26T09:26:00.012Z,6.87
2018-03-26T09:27:06.518Z,7.90
2018-03-26T09:28:11.735Z,8.10
2018-03-26T09:29:17.467Z,7.77
2018-03-26T09:30:22.431Z,7.40
2018-03-26T09:31:26.713Z,7.60
2018-03-26T09:32:31.665Z,6.90
2018-03-26T09:33:35.907Z,7.57
2018-03-26T09:34:40.164Z,7.53
2018-03-26T09:35:45.146Z,8.00
2018-03-26T09:36:49.394Z,7.70
2018-03-26T09:37:54.371Z,8.73
2018-03-26T09:38:58.554Z,8.37
2018-03-26T09:40:02.752Z,7.50
2018-03-26T09:41:09.931Z,7.20
2018-03-26T09:42:15.371Z,8.10
2018-03-26T09:43:20.682Z,8.43
2018-03-26T09:44:25.660Z,7.10
2018-03-26T09:45:29.855Z,8.63
2018-03-26T09:46:36.607Z,7.30
2018-03-26T09:47:43.053Z,8.03
2018-03-26T09:48:49.871Z,7.07
2018-03-26T09:49:54.526Z,8.00
2018-03-26T09:50:58.715Z,8.30
2018-03-26T09:52:02.955Z,7.40
2018-03-26T09:53:07.391Z,6.67
2018-03-26T09:54:11.749Z,7.50
2018-03-26T09:55:15.966Z,6.30
2018-03-26T09:56:20.156Z,7.23
2018-03-26T09:57:24.373Z,7.80
2018-03-26T09:58:28.628Z,8.53
2018-03-26T09:59:32.987Z,6.80
2018-03-26T10:00:46.258Z,7.33
2018-03-26T10:01:56.893Z,7.20
2018-03-26T10:03:01.214Z,6.63
2018-03-26T10:04:08.442Z,7.03
2018-03-26T10:05:14.740Z,7.40
2018-03-26T10:06:21.238Z,7.30
2018-03-26T10:07:25.431Z,6.83
2018-03-26T10:08:29.635Z,7.20
2018-03-26T10:09:35.557Z,6.97
2018-03-26T10:10:41.533Z,7.77
2018-03-26T10:11:48.218Z,7.20
2018-03-26T10:12:52.496Z,6.40
2018-03-26T10:13:56.700Z,6.40
2018-03-26T10:15:03.512Z,7.70
2018-03-26T10:16:09.531Z,7.70
2018-03-26T10:17:14.913Z,6.90
2018-03-26T10:18:19.515Z,6.90
2018-03-26T10:19:23.717Z,6.93
2018-03-26T10:20:28.366Z,6.90
2018-03-26T10:21:33.884Z,6.73
2018-03-26T10:22:39.422Z,7.30
2018-03-26T10:23:45.154Z,7.73
2018-03-26T10:24:49.641Z,8.00
2018-03-26T10:25:54.667Z,6.73
2018-03-26T10:26:58.855Z,7.30
2018-03-26T10:28:06.013Z,6.40
2018-03-26T10:29:11.355Z,7.80
2018-03-26T10:30:17.199Z,6.57
2018-03-26T10:31:21.797Z,6.90
2018-03-26T10:32:25.983Z,7.13
2018-03-26T10:33:31.125Z,7.83
2018-03-26T10:34:35.418Z,7.07
2018-03-26T10:35:39.698Z,7.50
2018-03-26T10:36:43.973Z,7.47
2018-03-26T10:37:48.193Z,7.80
2018-03-26T10:38:52.409Z,7.93
2018-03-26T10:39:56.629Z,6.80
2018-03-26T10:41:00.875Z,7.83
2018-03-26T10:42:05.199Z,7.37
2018-03-26T10:43:09.685Z,7.17
2018-03-26T10:44:13.879Z,6.97
2018-03-26T10:45:18.109Z,7.00
2018-03-26T10:46:22.311Z,6.60
2018-03-26T10:47:27.867Z,8.40
2018-03-26T10:48:35.151Z,6.10
2018-03-26T10:49:40.383Z,7.77
2018-03-26T10:50:44.624Z,7.27
2018-03-26T10:51:48.824Z,7.60
2018-03-26T10:52:53.034Z,7.20
2018-03-26T10:53:57.227Z,7.57
2018-03-26T10:55:01.506Z,7.33
2018-03-26T10:56:06.128Z,6.90
2018-03-26T10:57:10.358Z,8.40
2018-03-26T10:58:14.576Z,6.87
2018-03-26T10:59:18.779Z,7.10
2018-03-26T11:00:23.036Z,6.23
2018-03-26T11:01:27.309Z,6.13
2018-03-26T11:02:31.530Z,6.20
2018-03-26T11:03:35.782Z,6.20
2018-03-26T11:04:40.039Z,6.10
2018-03-26T11:05:44.643Z,6.90
2018-03-26T11:06:48.844Z,6.17
2018-03-26T11:07:53.042Z,7.00
2018-03-26T11:08:57.999Z,5.60
2018-03-26T11:10:03.040Z,7.00
2018-03-26T11:11:09.934Z,7.47
2018-03-26T11:12:16.534Z,5.90
2018-03-26T11:13:21.613Z,6.50
2018-03-26T11:14:25.814Z,7.30
2018-03-26T11:15:30.004Z,6.63
2018-03-26T11:16:36.883Z,6.33
2018-03-26T11:17:41.750Z,8.37
2018-03-26T11:18:46.572Z,7.53
2018-03-26T11:19:50.772Z,6.63
2018-03-26T11:20:54.967Z,6.50
2018-03-26T11:21:59.163Z,7.03
2018-03-26T11:23:05.573Z,7.13
2018-03-26T11:24:12.458Z,6.10
2018-03-26T11:25:17.318Z,6.67
2018-03-26T11:26:21.540Z,5.00
2018-03-26T11:27:25.742Z,6.10
2018-03-26T11:28:29.946Z,6.40
2018-03-26T11:29:36.297Z,6.10
2018-03-26T11:30:41.324Z,5.80
2018-03-26T11:31:47.758Z,6.50
2018-03-26T11:32:51.982Z,6.63
2018-03-26T11:33:56.161Z,5.60
2018-03-26T11:35:00.386Z,6.20
2018-03-26T11:36:05.904Z,6.23
2018-03-26T11:37:12.076Z,6.40
2018-03-26T11:38:18.120Z,6.60
2018-03-26T11:39:22.336Z,6.40
2018-03-26T11:40:26.532Z,7.17
2018-03-26T11:41:30.717Z,6.30
2018-03-26T11:42:35.948Z,6.73
2018-03-26T11:43:40.608Z,7.03
2018-03-26T11:44:47.143Z,7.10
2018-03-26T11:45:51.334Z,5.73
2018-03-26T11:46:56.286Z,6.53
2018-03-26T11:48:00.470Z,5.80
2018-03-26T11:49:06.167Z,4.40
2018-03-26T11:50:13.001Z,5.43
2018-03-26T11:51:18.075Z,6.50
2018-03-26T11:52:22.306Z,6.60
2018-03-26T11:53:26.499Z,6.10
2018-03-26T11:54:30.720Z,6.80
2018-03-26T11:55:39.121Z,8.13
2018-03-26T11:56:44.785Z,6.63
2018-03-26T11:57:49.479Z,6.90
2018-03-26T11:58:53.680Z,7.50
2018-03-26T11:59:57.889Z,7.50
2018-03-26T12:01:03.318Z,7.73
2018-03-26T12:02:09.614Z,6.90
2018-03-26T12:03:15.401Z,6.73
2018-03-26T12:04:19.721Z,6.77
2018-03-26T12:05:23.933Z,7.27
2018-03-26T12:06:28.132Z,6.50
2018-03-26T12:07:33.699Z,6.87
2018-03-26T12:08:39.539Z,6.40
2018-03-26T12:09:44.306Z,7.40
2018-03-26T12:10:49.580Z,6.57
2018-03-26T12:11:54.548Z,5.83
2018-03-26T12:12:58.735Z,5.50
2018-03-26T12:14:03.773Z,5.33
2018-03-26T12:15:09.537Z,4.70
2018-03-26T12:16:15.894Z,6.60
2018-03-26T12:17:21.003Z,5.03
2018-03-26T12:18:25.190Z,4.80
2018-03-26T12:19:29.412Z,5.10
2018-03-26T12:20:52.232Z,5.13
2018-03-26T12:21:56.425Z,5.20
2018-03-26T12:23:13.482Z,5.00
2018-03-26T12:24:36.382Z,5.20
2018-03-26T12:25:41.354Z,4.87
2018-03-26T12:26:46.355Z,6.00
2018-03-26T12:28:09.164Z,5.50
2018-03-26T12:30:57.033Z,5.30
2018-03-26T12:32:01.740Z,5.50
2018-03-26T12:33:06.384Z,5.90
2018-03-26T12:34:28.449Z,5.30
2018-03-26T12:35:50.420Z,5.80
2018-03-26T12:36:54.629Z,5.23
2018-03-26T12:37:58.849Z,5.60
2018-03-26T12:39:06.031Z,6.10
2018-03-26T12:40:28.464Z,5.67
2018-03-26T12:41:34.717Z,5.90
2018-03-26T12:42:40.127Z,6.17
2018-03-26T12:43:45.896Z,6.17
2018-03-26T12:45:10.593Z,5.97
2018-03-26T12:46:34.784Z,6.30
2018-03-26T12:47:40.055Z,5.70
2018-03-26T12:48:45.488Z,5.13
2018-03-26T12:49:49.843Z,5.00
2018-03-26T12:51:14.218Z,4.80
2018-03-26T12:52:36.765Z,4.80
2018-03-26T12:53:42.863Z,5.10
2018-03-26T12:54:48.545Z,6.17
2018-03-26T12:55:53.087Z,6.50
2018-03-26T12:57:16.690Z,5.90
2018-03-26T12:58:39.175Z,5.27
2018-03-26T12:59:46.588Z,5.90
2018-03-26T13:01:11.057Z,5.40
2018-03-26T13:02:30.488Z,5.37
2018-03-26T13:03:36.801Z,6.10
2018-03-26T13:04:42.261Z,5.20
2018-03-26T13:05:47.166Z,6.63
2018-03-26T13:06:52.169Z,5.37
2018-03-26T13:07:56.349Z,5.03
2018-03-26T13:09:00.586Z,5.00
2018-03-26T13:10:05.844Z,5.90
2018-03-26T13:11:12.442Z,6.20
2018-03-26T13:12:18.241Z,4.80
2018-03-26T13:13:22.433Z,5.37
2018-03-26T13:14:26.666Z,4.90
2018-03-26T13:15:30.874Z,5.40
2018-03-26T13:16:36.666Z,6.07
2018-03-26T13:17:42.006Z,5.93
2018-03-26T13:18:47.607Z,6.63
2018-03-26T13:19:51.821Z,6.03
2018-03-26T13:20:56.040Z,5.13
2018-03-26T13:22:02.435Z,5.80
2018-03-26T13:23:08.981Z,6.03
2018-03-26T13:24:14.396Z,5.83
2018-03-26T13:25:19.438Z,5.83
2018-03-26T13:26:24.812Z,5.70
2018-03-26T13:27:29.008Z,5.50
2018-03-26T13:28:34.779Z,5.33
2018-03-26T13:29:40.519Z,5.50
2018-03-26T13:30:45.443Z,6.20
2018-03-26T13:31:49.799Z,5.40
2018-03-26T13:32:54.005Z,5.43
2018-03-26T13:33:58.194Z,5.10
2018-03-26T13:35:03.072Z,5.50
2018-03-26T13:36:09.710Z,5.60
2018-03-26T13:37:15.100Z,5.03
2018-03-26T13:38:19.562Z,5.20
2018-03-26T13:39:23.754Z,4.20
2018-03-26T13:40:27.968Z,4.57
2018-03-26T13:41:32.554Z,3.77
2018-03-26T13:42:37.938Z,4.40
2018-03-26T13:43:43.086Z,4.17
2018-03-26T13:44:47.796Z,3.97
2018-03-26T13:45:52.004Z,3.90
2018-03-26T13:46:56.192Z,4.13
2018-03-26T13:48:00.408Z,4.73
2018-03-26T13:49:05.157Z,4.70
2018-03-26T13:50:11.452Z,4.47
2018-03-26T13:51:16.590Z,4.57
2018-03-26T13:52:20.911Z,3.37
2018-03-26T13:53:25.126Z,4.50
2018-03-26T13:54:29.334Z,4.60
2018-03-26T13:55:34.772Z,4.80
2018-03-26T13:56:40.512Z,4.40
2018-03-26T13:57:45.639Z,4.60
2018-03-26T13:58:50.843Z,4.90
2018-03-26T13:59:55.158Z,4.07
2018-03-26T14:00:59.396Z,3.90
2018-03-26T14:02:05.933Z,3.93
2018-03-26T14:03:11.026Z,4.73
2018-03-26T14:04:18.034Z,4.07
2018-03-26T14:05:22.287Z,4.10
2018-03-26T14:06:26.552Z,3.73
2018-03-26T14:07:30.711Z,3.70
2018-03-26T14:08:52.789Z,4.77
2018-03-26T14:10:16.232Z,4.33
2018-03-26T14:11:40.396Z,5.17
2018-03-26T14:13:03.931Z,5.37
2018-03-26T14:14:26.021Z,4.57
2018-03-26T14:15:47.940Z,5.03
2018-03-26T14:17:10.649Z,4.90
2018-03-26T14:18:15.103Z,4.47
2018-03-26T14:19:19.320Z,3.90
2018-03-26T14:20:23.498Z,5.10
2018-03-26T14:21:27.879Z,4.50
2018-03-26T14:22:32.260Z,3.73
2018-03-26T14:23:38.019Z,4.63
2018-03-26T14:24:42.517Z,4.63
2018-03-26T14:25:46.919Z,4.73